sensor_id;sensor_type;location;lat;lon;timestamp;P1;durP1;ratioP1;P2;durP2;ratioP2
79747;SDS011;69232;47.488;19.268;2023-09-12T00:01:03;6.35;;;3.28;;
79747;SDS011;69232;47.488;19.268;2023-09-12T00:03:32;7.32;;;3.72;;
79747;SDS011;69232;47.488;19.268;2023-09-12T00:05:59;8.30;;;3.67;;
79747;SDS011;69232;47.488;19.268;2023-09-12T00:08:25;9.25;;;4.25;;
79747;SDS011;69232;47.488;19.268;2023-09-12T00:11:03;9.65;;;3.85;;
79747;SDS011;69232;47.488;19.268;2023-09-12T00:13:31;7.30;;;3.45;;
79747;SDS011;69232;47.488;19.268;2023-09-12T00:15:57;13.55;;;3.85;;
79747;SDS011;69232;47.488;19.268;2023-09-12T00:18:22;8.65;;;4.25;;
79747;SDS011;69232;47.488;19.268;2023-09-12T00:20:49;7.82;;;3.58;;
79747;SDS011;69232;47.488;19.268;2023-09-12T00:23:15;10.68;;;4.30;;
79747;SDS011;69232;47.488;19.268;2023-09-12T00:25:40;7.45;;;3.47;;
79747;SDS011;69232;47.488;19.268;2023-09-12T00:28:05;12.65;;;4.05;;
79747;SDS011;69232;47.488;19.268;2023-09-12T00:30:31;6.95;;;3.67;;
79747;SDS011;69232;47.488;19.268;2023-09-12T00:32:56;9.43;;;3.65;;
79747;SDS011;69232;47.488;19.268;2023-09-12T00:35:22;6.47;;;3.45;;
79747;SDS011;69232;47.488;19.268;2023-09-12T00:37:47;6.78;;;3.38;;
79747;SDS011;69232;47.488;19.268;2023-09-12T00:40:12;8.25;;;4.10;;
79747;SDS011;69232;47.488;19.268;2023-09-12T00:42:38;8.25;;;3.63;;
79747;SDS011;69232;47.488;19.268;2023-09-12T00:45:03;6.80;;;3.50;;
79747;SDS011;69232;47.488;19.268;2023-09-12T00:47:29;5.90;;;4.03;;
79747;SDS011;69232;47.488;19.268;2023-09-12T00:49:55;8.35;;;4.30;;
79747;SDS011;69232;47.488;19.268;2023-09-12T00:52:22;9.30;;;4.03;;
79747;SDS011;69232;47.488;19.268;2023-09-12T00:54:49;6.65;;;3.33;;
79747;SDS011;69232;47.488;19.268;2023-09-12T00:57:14;6.88;;;3.97;;
79747;SDS011;69232;47.488;19.268;2023-09-12T00:59:40;7.93;;;4.15;;
79747;SDS011;69232;47.488;19.268;2023-09-12T01:02:05;9.95;;;3.65;;
79747;SDS011;69232;47.488;19.268;2023-09-12T01:04:31;8.30;;;4.00;;
79747;SDS011;69232;47.488;19.268;2023-09-12T01:06:58;12.30;;;4.15;;
79747;SDS011;69232;47.488;19.268;2023-09-12T01:09:23;8.82;;;3.85;;
79747;SDS011;69232;47.488;19.268;2023-09-12T01:11:49;9.50;;;4.07;;
79747;SDS011;69232;47.488;19.268;2023-09-12T01:14:14;10.43;;;4.47;;
79747;SDS011;69232;47.488;19.268;2023-09-12T01:16:40;9.63;;;4.15;;
79747;SDS011;69232;47.488;19.268;2023-09-12T01:19:06;9.75;;;4.05;;
79747;SDS011;69232;47.488;19.268;2023-09-12T01:26:49;10.07;;;4.13;;
79747;SDS011;69232;47.488;19.268;2023-09-12T01:29:38;9.05;;;4.13;;
79747;SDS011;69232;47.488;19.268;2023-09-12T01:32:04;9.27;;;3.83;;
79747;SDS011;69232;47.488;19.268;2023-09-12T01:34:29;11.35;;;4.25;;
79747;SDS011;69232;47.488;19.268;2023-09-12T01:36:55;7.13;;;4.00;;
79747;SDS011;69232;47.488;19.268;2023-09-12T01:39:20;13.38;;;4.07;;
79747;SDS011;69232;47.488;19.268;2023-09-12T01:41:46;10.88;;;4.90;;
79747;SDS011;69232;47.488;19.268;2023-09-12T01:44:13;8.98;;;4.30;;
79747;SDS011;69232;47.488;19.268;2023-09-12T01:46:39;9.25;;;3.97;;
79747;SDS011;69232;47.488;19.268;2023-09-12T01:49:05;8.50;;;4.00;;
79747;SDS011;69232;47.488;19.268;2023-09-12T01:51:31;7.55;;;3.70;;
79747;SDS011;69232;47.488;19.268;2023-09-12T01:53:56;9.98;;;4.15;;
79747;SDS011;69232;47.488;19.268;2023-09-12T01:56:22;7.85;;;4.40;;
79747;SDS011;69232;47.488;19.268;2023-09-12T01:58:48;12.55;;;4.10;;
79747;SDS011;69232;47.488;19.268;2023-09-12T02:01:14;8.10;;;4.45;;
79747;SDS011;69232;47.488;19.268;2023-09-12T02:03:39;7.68;;;4.40;;
79747;SDS011;69232;47.488;19.268;2023-09-12T02:06:05;7.32;;;4.05;;
79747;SDS011;69232;47.488;19.268;2023-09-12T02:08:30;12.02;;;4.25;;
79747;SDS011;69232;47.488;19.268;2023-09-12T02:10:56;9.77;;;4.38;;
79747;SDS011;69232;47.488;19.268;2023-09-12T02:13:21;9.52;;;3.78;;
79747;SDS011;69232;47.488;19.268;2023-09-12T02:15:46;11.27;;;4.43;;
79747;SDS011;69232;47.488;19.268;2023-09-12T02:18:12;9.50;;;3.95;;
79747;SDS011;69232;47.488;19.268;2023-09-12T02:20:38;8.63;;;3.60;;
79747;SDS011;69232;47.488;19.268;2023-09-12T02:23:05;10.05;;;4.30;;
79747;SDS011;69232;47.488;19.268;2023-09-12T02:25:31;10.40;;;3.75;;
79747;SDS011;69232;47.488;19.268;2023-09-12T02:27:56;8.05;;;3.97;;
79747;SDS011;69232;47.488;19.268;2023-09-12T02:30:22;10.57;;;3.95;;
79747;SDS011;69232;47.488;19.268;2023-09-12T02:32:47;11.57;;;4.32;;
79747;SDS011;69232;47.488;19.268;2023-09-12T02:35:12;13.20;;;4.03;;
79747;SDS011;69232;47.488;19.268;2023-09-12T02:37:38;9.82;;;4.22;;
79747;SDS011;69232;47.488;19.268;2023-09-12T02:40:03;10.55;;;3.97;;
79747;SDS011;69232;47.488;19.268;2023-09-12T02:42:35;11.10;;;4.13;;
79747;SDS011;69232;47.488;19.268;2023-09-12T02:45:01;8.38;;;4.03;;
79747;SDS011;69232;47.488;19.268;2023-09-12T02:47:26;9.35;;;3.97;;
79747;SDS011;69232;47.488;19.268;2023-09-12T02:49:51;6.50;;;3.83;;
79747;SDS011;69232;47.488;19.268;2023-09-12T02:52:17;6.80;;;3.90;;
79747;SDS011;69232;47.488;19.268;2023-09-12T02:54:42;9.73;;;4.35;;
79747;SDS011;69232;47.488;19.268;2023-09-12T02:57:08;10.90;;;4.57;;
79747;SDS011;69232;47.488;19.268;2023-09-12T02:59:34;8.82;;;3.50;;
79747;SDS011;69232;47.488;19.268;2023-09-12T03:01:59;11.73;;;3.97;;
79747;SDS011;69232;47.488;19.268;2023-09-12T03:04:25;11.15;;;4.03;;
79747;SDS011;69232;47.488;19.268;2023-09-12T03:06:53;12.23;;;5.07;;
79747;SDS011;69232;47.488;19.268;2023-09-12T03:09:18;9.90;;;4.07;;
79747;SDS011;69232;47.488;19.268;2023-09-12T03:11:44;10.23;;;4.43;;
79747;SDS011;69232;47.488;19.268;2023-09-12T03:14:10;7.13;;;3.63;;
79747;SDS011;69232;47.488;19.268;2023-09-12T03:16:35;7.32;;;4.15;;
79747;SDS011;69232;47.488;19.268;2023-09-12T03:19:01;7.78;;;3.92;;
79747;SDS011;69232;47.488;19.268;2023-09-12T03:21:28;12.05;;;4.30;;
79747;SDS011;69232;47.488;19.268;2023-09-12T03:23:53;9.43;;;5.18;;
79747;SDS011;69232;47.488;19.268;2023-09-12T03:26:18;8.27;;;4.05;;
79747;SDS011;69232;47.488;19.268;2023-09-12T03:28:44;5.25;;;3.63;;
79747;SDS011;69232;47.488;19.268;2023-09-12T03:31:10;8.63;;;4.47;;
79747;SDS011;69232;47.488;19.268;2023-09-12T03:33:37;6.93;;;3.65;;
79747;SDS011;69232;47.488;19.268;2023-09-12T03:36:03;8.95;;;4.45;;
79747;SDS011;69232;47.488;19.268;2023-09-12T03:38:30;11.82;;;4.15;;
79747;SDS011;69232;47.488;19.268;2023-09-12T03:40:55;7.38;;;4.00;;
79747;SDS011;69232;47.488;19.268;2023-09-12T03:43:21;10.18;;;3.63;;
79747;SDS011;69232;47.488;19.268;2023-09-12T03:45:46;8.75;;;3.83;;
79747;SDS011;69232;47.488;19.268;2023-09-12T03:48:11;8.98;;;3.63;;
79747;SDS011;69232;47.488;19.268;2023-09-12T03:50:37;11.15;;;4.10;;
79747;SDS011;69232;47.488;19.268;2023-09-12T03:53:02;10.82;;;3.85;;
79747;SDS011;69232;47.488;19.268;2023-09-12T03:55:28;13.02;;;4.80;;
79747;SDS011;69232;47.488;19.268;2023-09-12T03:57:53;7.75;;;4.38;;
79747;SDS011;69232;47.488;19.268;2023-09-12T04:00:19;7.35;;;3.50;;
79747;SDS011;69232;47.488;19.268;2023-09-12T04:02:44;5.20;;;3.33;;
79747;SDS011;69232;47.488;19.268;2023-09-12T04:05:10;10.93;;;4.15;;
79747;SDS011;69232;47.488;19.268;2023-09-12T04:07:35;8.95;;;4.15;;
79747;SDS011;69232;47.488;19.268;2023-09-12T04:10:01;10.20;;;4.55;;
79747;SDS011;69232;47.488;19.268;2023-09-12T04:12:26;11.35;;;4.00;;
79747;SDS011;69232;47.488;19.268;2023-09-12T04:14:52;10.95;;;4.57;;
79747;SDS011;69232;47.488;19.268;2023-09-12T04:17:17;13.93;;;4.20;;
79747;SDS011;69232;47.488;19.268;2023-09-12T04:19:43;8.70;;;4.72;;
79747;SDS011;69232;47.488;19.268;2023-09-12T04:22:08;7.80;;;4.35;;
79747;SDS011;69232;47.488;19.268;2023-09-12T04:24:33;11.02;;;3.97;;
79747;SDS011;69232;47.488;19.268;2023-09-12T04:26:59;16.75;;;4.28;;
79747;SDS011;69232;47.488;19.268;2023-09-12T04:29:24;10.27;;;3.92;;
79747;SDS011;69232;47.488;19.268;2023-09-12T04:31:50;9.40;;;4.78;;
79747;SDS011;69232;47.488;19.268;2023-09-12T04:34:17;8.43;;;3.92;;
79747;SDS011;69232;47.488;19.268;2023-09-12T04:36:43;10.27;;;4.25;;
79747;SDS011;69232;47.488;19.268;2023-09-12T04:39:09;8.02;;;4.10;;
79747;SDS011;69232;47.488;19.268;2023-09-12T04:41:34;10.20;;;4.20;;
79747;SDS011;69232;47.488;19.268;2023-09-12T04:43:59;8.90;;;4.32;;
79747;SDS011;69232;47.488;19.268;2023-09-12T04:46:27;9.73;;;4.10;;
79747;SDS011;69232;47.488;19.268;2023-09-12T04:48:52;12.88;;;4.57;;
79747;SDS011;69232;47.488;19.268;2023-09-12T04:51:18;11.70;;;4.70;;
79747;SDS011;69232;47.488;19.268;2023-09-12T04:53:43;10.05;;;4.57;;
79747;SDS011;69232;47.488;19.268;2023-09-12T04:56:09;7.03;;;4.45;;
79747;SDS011;69232;47.488;19.268;2023-09-12T04:58:35;6.07;;;4.07;;
79747;SDS011;69232;47.488;19.268;2023-09-12T05:01:00;11.20;;;4.45;;
79747;SDS011;69232;47.488;19.268;2023-09-12T05:03:26;9.55;;;4.57;;
79747;SDS011;69232;47.488;19.268;2023-09-12T05:05:51;9.63;;;4.30;;
79747;SDS011;69232;47.488;19.268;2023-09-12T05:08:17;7.75;;;4.45;;
79747;SDS011;69232;47.488;19.268;2023-09-12T05:10:45;8.68;;;5.03;;
79747;SDS011;69232;47.488;19.268;2023-09-12T05:13:11;12.38;;;4.32;;
79747;SDS011;69232;47.488;19.268;2023-09-12T05:15:38;11.43;;;4.22;;
79747;SDS011;69232;47.488;19.268;2023-09-12T05:18:04;29.52;;;5.68;;
79747;SDS011;69232;47.488;19.268;2023-09-12T05:20:30;9.32;;;4.47;;
79747;SDS011;69232;47.488;19.268;2023-09-12T05:22:57;8.43;;;4.63;;
79747;SDS011;69232;47.488;19.268;2023-09-12T05:25:22;10.13;;;4.65;;
79747;SDS011;69232;47.488;19.268;2023-09-12T05:27:47;8.23;;;4.40;;
79747;SDS011;69232;47.488;19.268;2023-09-12T05:30:13;11.23;;;4.30;;
79747;SDS011;69232;47.488;19.268;2023-09-12T05:32:40;10.20;;;4.18;;
79747;SDS011;69232;47.488;19.268;2023-09-12T05:35:06;9.50;;;4.82;;
79747;SDS011;69232;47.488;19.268;2023-09-12T05:37:32;9.45;;;4.47;;
79747;SDS011;69232;47.488;19.268;2023-09-12T05:39:57;12.45;;;5.78;;
79747;SDS011;69232;47.488;19.268;2023-09-12T05:42:22;14.68;;;6.65;;
79747;SDS011;69232;47.488;19.268;2023-09-12T05:44:48;19.88;;;8.13;;
79747;SDS011;69232;47.488;19.268;2023-09-12T05:47:15;13.63;;;6.97;;
79747;SDS011;69232;47.488;19.268;2023-09-12T05:49:41;15.85;;;5.43;;
79747;SDS011;69232;47.488;19.268;2023-09-12T05:52:06;16.83;;;6.10;;
79747;SDS011;69232;47.488;19.268;2023-09-12T05:54:32;11.77;;;5.07;;
79747;SDS011;69232;47.488;19.268;2023-09-12T05:56:57;10.35;;;4.88;;
79747;SDS011;69232;47.488;19.268;2023-09-12T05:59:23;11.00;;;4.60;;
79747;SDS011;69232;47.488;19.268;2023-09-12T06:01:48;10.00;;;5.07;;
79747;SDS011;69232;47.488;19.268;2023-09-12T06:04:14;12.52;;;4.65;;
79747;SDS011;69232;47.488;19.268;2023-09-12T06:06:39;9.38;;;4.03;;
79747;SDS011;69232;47.488;19.268;2023-09-12T06:09:05;10.90;;;4.63;;
79747;SDS011;69232;47.488;19.268;2023-09-12T06:11:30;11.85;;;4.65;;
79747;SDS011;69232;47.488;19.268;2023-09-12T06:13:56;8.13;;;4.82;;
79747;SDS011;69232;47.488;19.268;2023-09-12T06:16:22;6.50;;;3.78;;
79747;SDS011;69232;47.488;19.268;2023-09-12T06:18:47;11.57;;;4.45;;
79747;SDS011;69232;47.488;19.268;2023-09-12T06:21:13;17.70;;;4.50;;
79747;SDS011;69232;47.488;19.268;2023-09-12T06:23:39;9.05;;;4.43;;
79747;SDS011;69232;47.488;19.268;2023-09-12T06:26:04;8.80;;;4.43;;
79747;SDS011;69232;47.488;19.268;2023-09-12T06:28:30;8.82;;;4.68;;
79747;SDS011;69232;47.488;19.268;2023-09-12T06:30:56;10.57;;;4.60;;
79747;SDS011;69232;47.488;19.268;2023-09-12T06:33:23;10.32;;;4.30;;
79747;SDS011;69232;47.488;19.268;2023-09-12T06:35:49;12.23;;;4.22;;
79747;SDS011;69232;47.488;19.268;2023-09-12T06:38:15;7.75;;;4.28;;
79747;SDS011;69232;47.488;19.268;2023-09-12T06:40:44;9.27;;;3.97;;
79747;SDS011;69232;47.488;19.268;2023-09-12T06:43:12;6.78;;;4.20;;
79747;SDS011;69232;47.488;19.268;2023-09-12T06:45:37;9.75;;;4.07;;
79747;SDS011;69232;47.488;19.268;2023-09-12T06:48:03;6.95;;;4.43;;
79747;SDS011;69232;47.488;19.268;2023-09-12T06:50:29;6.00;;;4.22;;
79747;SDS011;69232;47.488;19.268;2023-09-12T06:52:55;15.45;;;4.57;;
79747;SDS011;69232;47.488;19.268;2023-09-12T06:55:20;9.07;;;4.15;;
79747;SDS011;69232;47.488;19.268;2023-09-12T06:57:46;15.52;;;4.65;;
79747;SDS011;69232;47.488;19.268;2023-09-12T07:00:12;8.15;;;4.32;;
79747;SDS011;69232;47.488;19.268;2023-09-12T07:02:38;9.32;;;4.97;;
79747;SDS011;69232;47.488;19.268;2023-09-12T07:05:03;8.50;;;4.43;;
79747;SDS011;69232;47.488;19.268;2023-09-12T07:07:29;10.27;;;4.78;;
79747;SDS011;69232;47.488;19.268;2023-09-12T07:09:55;9.18;;;4.70;;
79747;SDS011;69232;47.488;19.268;2023-09-12T07:12:21;12.82;;;5.28;;
79747;SDS011;69232;47.488;19.268;2023-09-12T07:14:46;8.57;;;4.32;;
79747;SDS011;69232;47.488;19.268;2023-09-12T07:17:12;10.23;;;4.47;;
79747;SDS011;69232;47.488;19.268;2023-09-12T07:19:37;7.43;;;4.38;;
79747;SDS011;69232;47.488;19.268;2023-09-12T07:22:03;6.63;;;4.20;;
79747;SDS011;69232;47.488;19.268;2023-09-12T07:24:28;9.50;;;4.47;;
79747;SDS011;69232;47.488;19.268;2023-09-12T07:26:54;11.40;;;4.40;;
79747;SDS011;69232;47.488;19.268;2023-09-12T07:29:19;8.13;;;4.10;;
79747;SDS011;69232;47.488;19.268;2023-09-12T07:31:45;10.35;;;4.05;;
79747;SDS011;69232;47.488;19.268;2023-09-12T07:34:10;8.55;;;4.43;;
79747;SDS011;69232;47.488;19.268;2023-09-12T07:36:37;8.00;;;3.65;;
79747;SDS011;69232;47.488;19.268;2023-09-12T07:39:03;9.40;;;4.32;;
79747;SDS011;69232;47.488;19.268;2023-09-12T07:41:29;12.02;;;4.60;;
79747;SDS011;69232;47.488;19.268;2023-09-12T07:43:55;12.82;;;5.40;;
79747;SDS011;69232;47.488;19.268;2023-09-12T07:46:20;8.77;;;3.95;;
79747;SDS011;69232;47.488;19.268;2023-09-12T07:48:46;13.50;;;4.32;;
79747;SDS011;69232;47.488;19.268;2023-09-12T07:51:12;9.32;;;4.07;;
79747;SDS011;69232;47.488;19.268;2023-09-12T07:53:39;11.10;;;4.55;;
79747;SDS011;69232;47.488;19.268;2023-09-12T07:56:05;12.07;;;3.67;;
79747;SDS011;69232;47.488;19.268;2023-09-12T07:58:31;13.23;;;3.90;;
79747;SDS011;69232;47.488;19.268;2023-09-12T08:00:56;9.43;;;4.30;;
79747;SDS011;69232;47.488;19.268;2023-09-12T08:03:22;10.23;;;4.53;;
79747;SDS011;69232;47.488;19.268;2023-09-12T08:05:54;9.88;;;3.60;;
79747;SDS011;69232;47.488;19.268;2023-09-12T08:08:21;8.07;;;4.18;;
79747;SDS011;69232;47.488;19.268;2023-09-12T08:10:47;9.63;;;4.13;;
79747;SDS011;69232;47.488;19.268;2023-09-12T08:13:12;7.25;;;3.85;;
79747;SDS011;69232;47.488;19.268;2023-09-12T08:15:38;11.73;;;4.18;;
79747;SDS011;69232;47.488;19.268;2023-09-12T08:18:03;8.35;;;4.13;;
79747;SDS011;69232;47.488;19.268;2023-09-12T08:20:29;6.57;;;4.15;;
79747;SDS011;69232;47.488;19.268;2023-09-12T08:22:54;6.82;;;4.18;;
79747;SDS011;69232;47.488;19.268;2023-09-12T08:25:20;8.35;;;3.53;;
79747;SDS011;69232;47.488;19.268;2023-09-12T08:27:45;5.60;;;3.75;;
79747;SDS011;69232;47.488;19.268;2023-09-12T08:30:11;8.25;;;3.40;;
79747;SDS011;69232;47.488;19.268;2023-09-12T08:32:37;5.63;;;3.25;;
79747;SDS011;69232;47.488;19.268;2023-09-12T08:35:05;8.90;;;3.83;;
79747;SDS011;69232;47.488;19.268;2023-09-12T08:37:31;7.20;;;3.92;;
79747;SDS011;69232;47.488;19.268;2023-09-12T08:39:57;10.57;;;3.83;;
79747;SDS011;69232;47.488;19.268;2023-09-12T08:42:24;10.68;;;4.50;;
79747;SDS011;69232;47.488;19.268;2023-09-12T08:44:53;6.03;;;3.10;;
79747;SDS011;69232;47.488;19.268;2023-09-12T08:47:18;8.65;;;3.72;;
79747;SDS011;69232;47.488;19.268;2023-09-12T08:49:44;6.45;;;3.40;;
79747;SDS011;69232;47.488;19.268;2023-09-12T08:52:10;8.02;;;3.42;;
79747;SDS011;69232;47.488;19.268;2023-09-12T08:54:35;6.38;;;2.97;;
79747;SDS011;69232;47.488;19.268;2023-09-12T08:57:01;5.35;;;3.50;;
79747;SDS011;69232;47.488;19.268;2023-09-12T08:59:28;6.45;;;3.00;;
79747;SDS011;69232;47.488;19.268;2023-09-12T09:01:54;6.70;;;3.55;;
79747;SDS011;69232;47.488;19.268;2023-09-12T09:04:22;6.22;;;3.35;;
79747;SDS011;69232;47.488;19.268;2023-09-12T09:06:48;5.65;;;3.00;;
79747;SDS011;69232;47.488;19.268;2023-09-12T09:09:14;6.50;;;4.25;;
79747;SDS011;69232;47.488;19.268;2023-09-12T09:11:40;4.40;;;3.13;;
79747;SDS011;69232;47.488;19.268;2023-09-12T09:14:06;6.30;;;3.05;;
79747;SDS011;69232;47.488;19.268;2023-09-12T09:16:31;4.93;;;3.15;;
79747;SDS011;69232;47.488;19.268;2023-09-12T09:19:01;5.00;;;3.45;;
79747;SDS011;69232;47.488;19.268;2023-09-12T09:21:29;11.25;;;3.45;;
79747;SDS011;69232;47.488;19.268;2023-09-12T09:23:58;5.82;;;3.10;;
79747;SDS011;69232;47.488;19.268;2023-09-12T09:26:42;6.20;;;3.03;;
79747;SDS011;69232;47.488;19.268;2023-09-12T09:29:16;5.80;;;3.00;;
79747;SDS011;69232;47.488;19.268;2023-09-12T09:31:43;4.68;;;3.05;;
79747;SDS011;69232;47.488;19.268;2023-09-12T09:36:42;5.72;;;3.00;;
79747;SDS011;69232;47.488;19.268;2023-09-12T09:39:17;6.13;;;3.28;;
79747;SDS011;69232;47.488;19.268;2023-09-12T09:41:50;4.22;;;2.63;;
79747;SDS011;69232;47.488;19.268;2023-09-12T09:44:17;5.97;;;3.08;;
79747;SDS011;69232;47.488;19.268;2023-09-12T09:46:43;6.05;;;3.30;;
79747;SDS011;69232;47.488;19.268;2023-09-12T09:49:15;6.95;;;3.20;;
79747;SDS011;69232;47.488;19.268;2023-09-12T09:51:42;7.88;;;2.85;;
79747;SDS011;69232;47.488;19.268;2023-09-12T09:54:08;6.93;;;2.42;;
79747;SDS011;69232;47.488;19.268;2023-09-12T09:56:44;4.35;;;2.55;;
79747;SDS011;69232;47.488;19.268;2023-09-12T09:59:14;3.33;;;2.47;;
79747;SDS011;69232;47.488;19.268;2023-09-12T10:01:41;6.55;;;3.13;;
79747;SDS011;69232;47.488;19.268;2023-09-12T10:04:08;5.15;;;2.75;;
79747;SDS011;69232;47.488;19.268;2023-09-12T10:06:35;4.32;;;2.80;;
79747;SDS011;69232;47.488;19.268;2023-09-12T10:09:01;4.25;;;2.75;;
79747;SDS011;69232;47.488;19.268;2023-09-12T10:13:59;6.50;;;2.72;;
79747;SDS011;69232;47.488;19.268;2023-09-12T10:16:29;5.95;;;2.72;;
79747;SDS011;69232;47.488;19.268;2023-09-12T10:24:39;3.78;;;2.65;;
79747;SDS011;69232;47.488;19.268;2023-09-12T10:27:05;5.18;;;2.88;;
79747;SDS011;69232;47.488;19.268;2023-09-12T10:29:31;5.32;;;3.00;;
79747;SDS011;69232;47.488;19.268;2023-09-12T10:31:57;5.65;;;2.85;;
79747;SDS011;69232;47.488;19.268;2023-09-12T10:34:23;5.07;;;2.70;;
79747;SDS011;69232;47.488;19.268;2023-09-12T10:36:50;7.32;;;2.80;;
79747;SDS011;69232;47.488;19.268;2023-09-12T10:39:16;3.97;;;2.90;;
79747;SDS011;69232;47.488;19.268;2023-09-12T10:41:44;6.57;;;3.17;;
79747;SDS011;69232;47.488;19.268;2023-09-12T10:44:14;7.57;;;2.78;;
79747;SDS011;69232;47.488;19.268;2023-09-12T10:46:40;5.60;;;2.88;;
79747;SDS011;69232;47.488;19.268;2023-09-12T10:49:07;4.88;;;2.75;;
79747;SDS011;69232;47.488;19.268;2023-09-12T10:51:34;6.50;;;3.90;;
79747;SDS011;69232;47.488;19.268;2023-09-12T10:54:03;8.88;;;3.03;;
79747;SDS011;69232;47.488;19.268;2023-09-12T10:56:29;4.75;;;2.78;;
79747;SDS011;69232;47.488;19.268;2023-09-12T11:01:32;6.57;;;3.10;;
79747;SDS011;69232;47.488;19.268;2023-09-12T11:03:59;3.47;;;2.70;;
79747;SDS011;69232;47.488;19.268;2023-09-12T11:06:44;4.72;;;2.60;;
79747;SDS011;69232;47.488;19.268;2023-09-12T11:11:44;4.80;;;3.10;;
79747;SDS011;69232;47.488;19.268;2023-09-12T11:14:14;5.30;;;3.08;;
79747;SDS011;69232;47.488;19.268;2023-09-12T11:16:42;5.50;;;2.95;;
79747;SDS011;69232;47.488;19.268;2023-09-12T11:19:15;4.07;;;2.60;;
79747;SDS011;69232;47.488;19.268;2023-09-12T11:21:48;4.85;;;2.85;;
79747;SDS011;69232;47.488;19.268;2023-09-12T11:24:15;5.13;;;3.00;;
79747;SDS011;69232;47.488;19.268;2023-09-12T11:26:54;4.38;;;2.95;;
79747;SDS011;69232;47.488;19.268;2023-09-12T11:31:55;5.63;;;2.70;;
79747;SDS011;69232;47.488;19.268;2023-09-12T11:34:27;4.57;;;2.60;;
79747;SDS011;69232;47.488;19.268;2023-09-12T11:36:56;8.65;;;2.80;;
79747;SDS011;69232;47.488;19.268;2023-09-12T11:39:30;5.85;;;2.83;;
79747;SDS011;69232;47.488;19.268;2023-09-12T11:41:59;3.83;;;2.65;;
79747;SDS011;69232;47.488;19.268;2023-09-12T11:44:25;6.35;;;3.70;;
79747;SDS011;69232;47.488;19.268;2023-09-12T11:46:51;5.40;;;2.95;;
79747;SDS011;69232;47.488;19.268;2023-09-12T11:49:18;5.10;;;2.88;;
79747;SDS011;69232;47.488;19.268;2023-09-12T11:51:51;4.97;;;2.80;;
79747;SDS011;69232;47.488;19.268;2023-09-12T11:54:18;4.75;;;3.00;;
79747;SDS011;69232;47.488;19.268;2023-09-12T11:56:46;5.28;;;2.67;;
79747;SDS011;69232;47.488;19.268;2023-09-12T11:59:12;5.80;;;2.95;;
79747;SDS011;69232;47.488;19.268;2023-09-12T12:01:38;7.57;;;2.80;;
79747;SDS011;69232;47.488;19.268;2023-09-12T12:04:03;8.27;;;3.13;;
79747;SDS011;69232;47.488;19.268;2023-09-12T12:06:29;8.23;;;3.22;;
79747;SDS011;69232;47.488;19.268;2023-09-12T12:08:55;3.22;;;2.30;;
79747;SDS011;69232;47.488;19.268;2023-09-12T12:11:20;4.72;;;2.50;;
79747;SDS011;69232;47.488;19.268;2023-09-12T12:13:46;5.32;;;2.72;;
79747;SDS011;69232;47.488;19.268;2023-09-12T12:16:15;7.13;;;2.60;;
79747;SDS011;69232;47.488;19.268;2023-09-12T12:18:41;8.85;;;3.17;;
79747;SDS011;69232;47.488;19.268;2023-09-12T12:21:07;3.08;;;2.42;;
79747;SDS011;69232;47.488;19.268;2023-09-12T12:23:32;5.10;;;2.53;;
79747;SDS011;69232;47.488;19.268;2023-09-12T12:26:02;7.00;;;2.80;;
79747;SDS011;69232;47.488;19.268;2023-09-12T12:28:37;4.38;;;2.33;;
79747;SDS011;69232;47.488;19.268;2023-09-12T12:31:03;5.10;;;2.63;;
79747;SDS011;69232;47.488;19.268;2023-09-12T12:33:29;5.93;;;2.78;;
79747;SDS011;69232;47.488;19.268;2023-09-12T12:36:01;10.65;;;2.83;;
79747;SDS011;69232;47.488;19.268;2023-09-12T12:38:35;4.70;;;2.63;;
79747;SDS011;69232;47.488;19.268;2023-09-12T12:41:02;6.18;;;2.85;;
79747;SDS011;69232;47.488;19.268;2023-09-12T12:43:28;4.38;;;2.42;;
79747;SDS011;69232;47.488;19.268;2023-09-12T12:45:57;6.97;;;2.85;;
79747;SDS011;69232;47.488;19.268;2023-09-12T12:48:30;7.65;;;3.03;;
79747;SDS011;69232;47.488;19.268;2023-09-12T12:50:56;4.70;;;2.42;;
79747;SDS011;69232;47.488;19.268;2023-09-12T12:53:41;5.25;;;2.47;;
79747;SDS011;69232;47.488;19.268;2023-09-12T12:56:07;4.82;;;2.17;;
79747;SDS011;69232;47.488;19.268;2023-09-12T12:58:33;6.75;;;2.25;;
79747;SDS011;69232;47.488;19.268;2023-09-12T13:01:00;7.97;;;2.67;;
79747;SDS011;69232;47.488;19.268;2023-09-12T13:03:25;6.53;;;2.30;;
79747;SDS011;69232;47.488;19.268;2023-09-12T13:05:51;7.82;;;2.47;;
79747;SDS011;69232;47.488;19.268;2023-09-12T13:08:16;4.22;;;2.67;;
79747;SDS011;69232;47.488;19.268;2023-09-12T13:10:42;6.45;;;2.83;;
79747;SDS011;69232;47.488;19.268;2023-09-12T13:13:08;7.97;;;2.60;;
79747;SDS011;69232;47.488;19.268;2023-09-12T13:15:33;4.55;;;2.60;;
79747;SDS011;69232;47.488;19.268;2023-09-12T13:17:58;5.53;;;2.60;;
79747;SDS011;69232;47.488;19.268;2023-09-12T13:20:24;6.93;;;3.08;;
79747;SDS011;69232;47.488;19.268;2023-09-12T13:22:50;5.20;;;2.63;;
79747;SDS011;69232;47.488;19.268;2023-09-12T13:25:15;6.95;;;2.92;;
79747;SDS011;69232;47.488;19.268;2023-09-12T13:27:40;8.55;;;2.75;;
79747;SDS011;69232;47.488;19.268;2023-09-12T13:30:06;3.80;;;2.42;;
79747;SDS011;69232;47.488;19.268;2023-09-12T13:32:32;3.67;;;2.20;;
79747;SDS011;69232;47.488;19.268;2023-09-12T13:34:58;6.28;;;2.95;;
79747;SDS011;69232;47.488;19.268;2023-09-12T13:37:23;18.73;;;3.97;;
79747;SDS011;69232;47.488;19.268;2023-09-12T13:39:49;16.58;;;3.20;;
79747;SDS011;69232;47.488;19.268;2023-09-12T13:42:15;5.57;;;2.35;;
79747;SDS011;69232;47.488;19.268;2023-09-12T13:44:45;10.18;;;3.30;;
79747;SDS011;69232;47.488;19.268;2023-09-12T13:47:11;11.43;;;2.90;;
79747;SDS011;69232;47.488;19.268;2023-09-12T13:49:37;5.68;;;2.67;;
79747;SDS011;69232;47.488;19.268;2023-09-12T13:52:03;7.72;;;3.10;;
79747;SDS011;69232;47.488;19.268;2023-09-12T13:54:28;7.53;;;3.20;;
79747;SDS011;69232;47.488;19.268;2023-09-12T13:56:54;12.65;;;2.75;;
79747;SDS011;69232;47.488;19.268;2023-09-12T13:59:19;6.50;;;3.50;;
79747;SDS011;69232;47.488;19.268;2023-09-12T14:01:45;8.45;;;3.38;;
79747;SDS011;69232;47.488;19.268;2023-09-12T14:04:11;8.82;;;3.17;;
79747;SDS011;69232;47.488;19.268;2023-09-12T14:06:38;11.32;;;3.25;;
79747;SDS011;69232;47.488;19.268;2023-09-12T14:09:04;5.65;;;2.70;;
79747;SDS011;69232;47.488;19.268;2023-09-12T14:11:30;16.23;;;3.65;;
79747;SDS011;69232;47.488;19.268;2023-09-12T14:13:55;8.68;;;2.90;;
79747;SDS011;69232;47.488;19.268;2023-09-12T14:16:21;6.45;;;3.03;;
79747;SDS011;69232;47.488;19.268;2023-09-12T14:18:46;4.40;;;2.60;;
79747;SDS011;69232;47.488;19.268;2023-09-12T14:21:12;5.60;;;2.45;;
79747;SDS011;69232;47.488;19.268;2023-09-12T14:23:37;5.68;;;2.70;;
79747;SDS011;69232;47.488;19.268;2023-09-12T14:26:02;5.18;;;3.33;;
79747;SDS011;69232;47.488;19.268;2023-09-12T14:28:28;4.82;;;3.00;;
79747;SDS011;69232;47.488;19.268;2023-09-12T14:30:54;7.97;;;2.63;;
79747;SDS011;69232;47.488;19.268;2023-09-12T14:33:20;9.38;;;2.97;;
79747;SDS011;69232;47.488;19.268;2023-09-12T14:35:46;6.60;;;2.55;;
79747;SDS011;69232;47.488;19.268;2023-09-12T14:38:12;9.40;;;3.30;;
79747;SDS011;69232;47.488;19.268;2023-09-12T14:40:37;7.03;;;2.88;;
79747;SDS011;69232;47.488;19.268;2023-09-12T14:43:04;8.05;;;2.80;;
79747;SDS011;69232;47.488;19.268;2023-09-12T14:45:30;12.10;;;3.00;;
79747;SDS011;69232;47.488;19.268;2023-09-12T14:47:56;4.88;;;2.70;;
79747;SDS011;69232;47.488;19.268;2023-09-12T14:50:22;8.90;;;3.00;;